AirNav   Air Wisconsin Up To $57,000 Bonus
 
 1150 users online  

61NC Southern Comforts Aerodrome
Parkton, North Carolina, USA

GOING TO PARKTON?


FAA INFORMATION EFFECTIVE 22 APRIL 2021

Location

FAA Identifier: 61NC
Lat/Long: 34-52-16.5900N 078-57-56.1040W
34-52.276500N 078-57.935067W
34.8712750,-78.9655844
(estimated)
Elevation: 175 ft. / 53 m (estimated)
Variation: 07W (1985)
From city: 3 miles SE of PARKTON, NC
Time zone: UTC -4 (UTC -5 during Standard Time)
Zip code: 28371

Airport Operations

Airport use: Private use. Permission required prior to landing
Activation date: 06/1976
Control tower: no
ARTCC: WASHINGTON CENTER
FSS: RALEIGH FLIGHT SERVICE STATION
Attendance: DAYLIGHT HOURS
Wind indicator: yes
Segmented circle: no

Airport Communications

UNICOM: 122.8
WX ASOS at FAY (8 nm NE): 121.25 (910-484-1546)
WX ASOS at LBT (16 nm S): 134.775 (910-671-1906)

Nearby radio navigation aids

VOR radial/distance  VOR name  Freq  Var
FAYr217/8.2FAYETTEVILLE VOR/DME108.8004W
SDZr127/36.9SANDHILLS VORTAC111.8003W

 
NDB name  Hdg/Dist  Freq  Var  ID
ROBESON025/16.135908WRSY .-. ... -.--
FORT BRAGG212/17.739307WFGP ..-. --. .--.
POPE188/21.333807WPOB .--. --- -...
MACKALL116/27.227806WHFF .... ..-. ..-.
CLINTON267/30.341209WCTZ -.-. - --..
DILLON047/32.227409WDLC -.. .-.. -.-.
HARNETT211/36.641708WHQT .... --.- -
CAMP348/38.022707WCPC -.-. .--. -.-.

Airport Services

Fuel available: 100LL
Airframe service: MAJOR
Powerplant service: MAJOR

Runway Information

Runway 1/19

Dimensions: 4000 x 200 ft. / 1219 x 61 m
Surface: turf
RUNWAY 1  RUNWAY 19
Traffic pattern: leftleft
Obstructions: 30 ft. trees30 ft. trees

Airport Ownership and Management from official FAA records

Ownership: Privately-owned
Owner: WILLIAM K. JOHNSON/WALTER MC GILL
391 LITTLE MARSH RD
PARKTON, NC 28371
Phone 910-858-2206
MR. MC GILL RESIDES IN CALIFORNIA AND IS MR. JOHNSON'S UNCLE.
Manager: WILLIAM K. JOHNSON
391 LITTLE MARSH RD
PARKTON, NC 28371
Phone 910-858-2206

Airport Operational Statistics

Aircraft based on the field: 37
Single engine airplanes: 37
    

Additional Remarks

PUBLIC PROVIDED WITH REPAIR SERVICES.
FOR CD CTC WASHINGTON ARTCC AT 703-771-3587.

Instrument Procedures

There are no published instrument procedures at 61NC.

Some nearby airports with instrument procedures:

KFAY - Fayetteville Regional Airport/Grannis Field (8 nm NE)
5W4 - P K Airpark (14 nm NW)
KFBG - Simmons Army Airfield (16 nm N)
KLBT - Lumberton Regional Airport (16 nm S)
KPOB - Pope Army Airfield (18 nm N)
 
Loc | Ops | Rwys | IFR | FBO | Links
Com | Nav | Svcs | Stats | Notes
Area around 61NC (Southern Comforts Aerodrome)
 
Road maps at: MapQuest Bing Google
 
Aerial photo
No photo
 
Sectional chart

 
Airport distance calculator
Flying to Southern Comforts Aerodrome? Find the distance to fly.

From to 61NC

Sunrise and sunset
Times for 10-May-2021
 Local
(UTC-4)
 Zulu
(UTC)
Morning civil twilight05:5009:50
Sunrise06:1810:18
Sunset20:0700:07
Evening civil twilight20:3500:35

Current date and time
Zulu (UTC)  11-May-2021 01:06:37
Local (UTC-4)  10-May-2021 21:06:37
 
METAR
KFAY 
8nm NE 
110053Z 22006KT 10SM CLR 23/16 A2993 RMK AO2 SLP130 T02330156
KFBG 
15nm N 
110056Z AUTO 24004KT 10SM BKN046 OVC060 24/16 A2992 RMK AO2 LTG DSNT N SLP133 T02400162 $
KPOB 
18nm N 
110056Z AUTO 02005KT 10SM OVC043 24/17 A2993 RMK AO2 SLP137 T02400165 TSNO $
TAF
KFAY 
8nm NE 
102105Z 1021/1118 20012G18KT P6SM SCT050 FM102330 30012G20KT 3SM TSRA BR BKN040CB FM110100 36008KT P6SM VCSH BKN025 FM110300 03007KT P6SM BKN008 FM111200 03007KT P6SM BKN015
KFBG 
15nm N 
102110Z 1021/1123 24010KT 8000 -SHRA VCTS SCT010 BKN025CB OVC100 520102 QNH2985INS TEMPO 1022/1101 25015G25KT 3200 TSRA BKN010 OVC025CB BECMG 1101/1102 32012G20KT 9999 -SHRA SCT010 BKN025 OVC040 QNH2985INS TEMPO 1102/1105 33015G25KT 3200 TSRA BKN010 OVC025CB BECMG 1105/1106 04008KT 9999 NSW OVC010 QNH3005INS BECMG 1111/1112 03012G18KT 9999 SCT010 BKN025 OVC045 QNH3010INS TX28/1021Z TN13/1110Z
KLBT 
17nm S 
101720Z 1018/1118 24012G19KT P6SM SCT045 BKN120 FM102000 27007KT 6SM TSRA BR OVC060CB TEMPO 1021/1101 3SM TSRA BR OVC025CB FM110200 36005KT 6SM SHRA BR BKN030 FM110300 03005KT P6SM VCSH BKN010 FM110500 03006KT P6SM BKN007 AMD NOT SKED
KPOB 
18nm N 
102110Z 1021/1123 26012G20KT 9999 SCT025 BKN040 BKN100 QNH2986INS TEMPO 1022/1024 26015G25KT 3200 TSRA BKN010 OVC025CB BECMG 1023/1024 35012G18KT 9999 -SHRA SCT010 BKN025 OVC040 QNH2985INS TEMPO 1100/1103 34015G25KT 3200 TSRA BKN010 OVC025CB BECMG 1104/1105 04008KT 9999 NSW OVC010 QNH3005INS BECMG 1111/1112 03012G18KT 9999 SCT010 BKN025 OVC045 QNH3010INS TX26/1021Z TN13/1110Z
NOTAMs
Click for the latest NOTAMs
NOTAMs are issued by the DoD/FAA and will open in a separate window not controlled by AirNav.

 

 
 

Would you like to see your business listed on this page?

 If your business provides an interesting product or service to pilots, flight crews, aircraft, or users of the Southern Comforts Aerodrome, you should consider listing it here.  To start the listing process, click on the button below
 
Add a business
 

Other Pages about Southern Comforts Aerodrome

users.aol.com/...
 
Update a link
 
Copyright © AirNav, LLC. All rights reserved. Privacy Policy  Contact